sensor_id;sensor_type;location;lat;lon;timestamp;temperature;humidity
34985;DHT22;21190;58.750;17.004;2023-04-07T00:01:38;0.30;99.90
34985;DHT22;21190;58.750;17.004;2023-04-07T00:04:06;0.30;99.90
34985;DHT22;21190;58.750;17.004;2023-04-07T00:06:33;0.30;99.90
34985;DHT22;21190;58.750;17.004;2023-04-07T00:09:00;0.30;99.90
34985;DHT22;21190;58.750;17.004;2023-04-07T00:11:27;0.30;99.90
34985;DHT22;21190;58.750;17.004;2023-04-07T00:13:54;0.30;99.90
34985;DHT22;21190;58.750;17.004;2023-04-07T00:16:21;0.30;99.90
34985;DHT22;21190;58.750;17.004;2023-04-07T00:18:48;0.30;99.90
34985;DHT22;21190;58.750;17.004;2023-04-07T00:21:15;0.30;99.90
34985;DHT22;21190;58.750;17.004;2023-04-07T00:23:42;0.40;99.90
34985;DHT22;21190;58.750;17.004;2023-04-07T00:26:09;0.40;99.90
34985;DHT22;21190;58.750;17.004;2023-04-07T00:28:36;0.40;99.90
34985;DHT22;21190;58.750;17.004;2023-04-07T00:31:03;0.30;99.90
34985;DHT22;21190;58.750;17.004;2023-04-07T00:33:30;0.40;99.90
34985;DHT22;21190;58.750;17.004;2023-04-07T00:35:57;0.40;99.90
34985;DHT22;21190;58.750;17.004;2023-04-07T00:38:24;0.40;99.90
34985;DHT22;21190;58.750;17.004;2023-04-07T00:41:00;0.40;99.90
34985;DHT22;21190;58.750;17.004;2023-04-07T00:43:27;0.30;99.90
34985;DHT22;21190;58.750;17.004;2023-04-07T00:45:54;0.30;99.90
34985;DHT22;21190;58.750;17.004;2023-04-07T00:48:21;0.40;99.90
34985;DHT22;21190;58.750;17.004;2023-04-07T00:50:48;0.40;99.90
34985;DHT22;21190;58.750;17.004;2023-04-07T00:53:17;0.30;99.90
34985;DHT22;21190;58.750;17.004;2023-04-07T00:55:45;0.40;99.90
34985;DHT22;21190;58.750;17.004;2023-04-07T00:58:12;0.40;99.90
34985;DHT22;21190;58.750;17.004;2023-04-07T01:00:48;0.30;99.90
34985;DHT22;21190;58.750;17.004;2023-04-07T01:03:19;0.40;99.90
34985;DHT22;21190;58.750;17.004;2023-04-07T01:05:54;0.40;99.90
34985;DHT22;21190;58.750;17.004;2023-04-07T01:11:13;0.40;99.90
34985;DHT22;21190;58.750;17.004;2023-04-07T01:13:48;0.50;99.90
34985;DHT22;21190;58.750;17.004;2023-04-07T01:16:34;0.40;99.90
34985;DHT22;21190;58.750;17.004;2023-04-07T01:21:48;0.70;99.90
34985;DHT22;21190;58.750;17.004;2023-04-07T01:24:38;0.70;99.90
34985;DHT22;21190;58.750;17.004;2023-04-07T01:27:35;0.80;99.90
34985;DHT22;21190;58.750;17.004;2023-04-07T01:30:07;0.70;99.90
34985;DHT22;21190;58.750;17.004;2023-04-07T01:32:36;0.60;99.90
34985;DHT22;21190;58.750;17.004;2023-04-07T01:35:08;0.60;99.90
34985;DHT22;21190;58.750;17.004;2023-04-07T01:37:36;0.50;99.90
34985;DHT22;21190;58.750;17.004;2023-04-07T01:40:06;0.80;99.90
34985;DHT22;21190;58.750;17.004;2023-04-07T01:42:33;0.90;99.90
34985;DHT22;21190;58.750;17.004;2023-04-07T01:45:02;0.90;99.90
34985;DHT22;21190;58.750;17.004;2023-04-07T01:47:30;0.90;99.90
34985;DHT22;21190;58.750;17.004;2023-04-07T01:50:00;0.90;99.90
34985;DHT22;21190;58.750;17.004;2023-04-07T01:52:32;1.00;99.90
34985;DHT22;21190;58.750;17.004;2023-04-07T01:55:00;1.00;99.90
34985;DHT22;21190;58.750;17.004;2023-04-07T01:57:27;1.10;99.90
34985;DHT22;21190;58.750;17.004;2023-04-07T01:59:54;1.00;99.90
34985;DHT22;21190;58.750;17.004;2023-04-07T02:02:21;1.00;99.90
34985;DHT22;21190;58.750;17.004;2023-04-07T02:04:53;1.10;99.90
34985;DHT22;21190;58.750;17.004;2023-04-07T02:08:00;1.00;99.90
34985;DHT22;21190;58.750;17.004;2023-04-07T02:10:29;1.10;99.90
34985;DHT22;21190;58.750;17.004;2023-04-07T02:12:59;1.00;99.90
34985;DHT22;21190;58.750;17.004;2023-04-07T02:15:27;1.00;99.90
34985;DHT22;21190;58.750;17.004;2023-04-07T02:17:58;0.90;99.90
34985;DHT22;21190;58.750;17.004;2023-04-07T02:20:26;0.90;99.90
34985;DHT22;21190;58.750;17.004;2023-04-07T02:22:54;0.90;99.90
34985;DHT22;21190;58.750;17.004;2023-04-07T02:25:31;0.80;99.90
34985;DHT22;21190;58.750;17.004;2023-04-07T02:27:59;0.80;99.90
34985;DHT22;21190;58.750;17.004;2023-04-07T02:30:27;0.70;99.90
34985;DHT22;21190;58.750;17.004;2023-04-07T02:32:54;0.60;99.90
34985;DHT22;21190;58.750;17.004;2023-04-07T02:35:21;0.60;99.90
34985;DHT22;21190;58.750;17.004;2023-04-07T02:37:48;0.70;99.90
34985;DHT22;21190;58.750;17.004;2023-04-07T02:40:16;0.60;99.90
34985;DHT22;21190;58.750;17.004;2023-04-07T02:42:43;0.60;99.90
34985;DHT22;21190;58.750;17.004;2023-04-07T02:45:10;0.60;99.90
34985;DHT22;21190;58.750;17.004;2023-04-07T02:47:38;0.70;99.90
34985;DHT22;21190;58.750;17.004;2023-04-07T02:50:05;0.70;99.90
34985;DHT22;21190;58.750;17.004;2023-04-07T02:52:32;0.70;99.90
34985;DHT22;21190;58.750;17.004;2023-04-07T02:54:59;0.70;99.90
34985;DHT22;21190;58.750;17.004;2023-04-07T02:57:26;0.70;99.90
34985;DHT22;21190;58.750;17.004;2023-04-07T02:59:54;0.90;99.90
34985;DHT22;21190;58.750;17.004;2023-04-07T03:02:23;0.90;99.90
34985;DHT22;21190;58.750;17.004;2023-04-07T03:04:51;0.90;99.90
34985;DHT22;21190;58.750;17.004;2023-04-07T03:07:18;1.00;99.90
34985;DHT22;21190;58.750;17.004;2023-04-07T03:09:45;1.10;99.90
34985;DHT22;21190;58.750;17.004;2023-04-07T03:12:12;1.00;99.90
34985;DHT22;21190;58.750;17.004;2023-04-07T03:14:39;1.00;99.90
34985;DHT22;21190;58.750;17.004;2023-04-07T03:17:06;1.00;99.90
34985;DHT22;21190;58.750;17.004;2023-04-07T03:19:34;1.00;99.90
34985;DHT22;21190;58.750;17.004;2023-04-07T03:22:01;0.90;99.90
34985;DHT22;21190;58.750;17.004;2023-04-07T03:24:28;0.90;99.90
34985;DHT22;21190;58.750;17.004;2023-04-07T03:26:54;0.90;99.90
34985;DHT22;21190;58.750;17.004;2023-04-07T03:29:21;0.90;99.90
34985;DHT22;21190;58.750;17.004;2023-04-07T03:31:48;0.90;99.90
34985;DHT22;21190;58.750;17.004;2023-04-07T03:34:15;0.90;99.90
34985;DHT22;21190;58.750;17.004;2023-04-07T03:36:42;0.90;99.90
34985;DHT22;21190;58.750;17.004;2023-04-07T03:39:09;0.90;99.90
34985;DHT22;21190;58.750;17.004;2023-04-07T03:41:36;0.80;99.90
34985;DHT22;21190;58.750;17.004;2023-04-07T03:44:03;0.80;99.90
34985;DHT22;21190;58.750;17.004;2023-04-07T03:46:30;0.80;99.90
34985;DHT22;21190;58.750;17.004;2023-04-07T03:48:57;0.90;99.90
34985;DHT22;21190;58.750;17.004;2023-04-07T03:51:24;0.90;99.90
34985;DHT22;21190;58.750;17.004;2023-04-07T03:53:53;0.90;99.90
34985;DHT22;21190;58.750;17.004;2023-04-07T03:56:20;0.80;99.90
34985;DHT22;21190;58.750;17.004;2023-04-07T03:58:48;0.80;99.90
34985;DHT22;21190;58.750;17.004;2023-04-07T04:01:15;0.80;99.90
34985;DHT22;21190;58.750;17.004;2023-04-07T04:03:42;0.70;99.90
34985;DHT22;21190;58.750;17.004;2023-04-07T04:06:10;0.70;99.90
34985;DHT22;21190;58.750;17.004;2023-04-07T04:08:37;0.70;99.90
34985;DHT22;21190;58.750;17.004;2023-04-07T04:11:04;0.80;99.90
34985;DHT22;21190;58.750;17.004;2023-04-07T04:13:31;0.90;99.90
34985;DHT22;21190;58.750;17.004;2023-04-07T04:15:58;0.80;99.90
34985;DHT22;21190;58.750;17.004;2023-04-07T04:18:25;0.90;99.90
34985;DHT22;21190;58.750;17.004;2023-04-07T04:20:51;1.00;99.90
34985;DHT22;21190;58.750;17.004;2023-04-07T04:23:18;1.30;99.90
34985;DHT22;21190;58.750;17.004;2023-04-07T04:25:45;1.30;99.90
34985;DHT22;21190;58.750;17.004;2023-04-07T04:28:12;1.30;99.90
34985;DHT22;21190;58.750;17.004;2023-04-07T04:30:39;1.50;99.90
34985;DHT22;21190;58.750;17.004;2023-04-07T04:33:06;1.40;99.90
34985;DHT22;21190;58.750;17.004;2023-04-07T04:35:33;1.40;99.90
34985;DHT22;21190;58.750;17.004;2023-04-07T04:38:00;1.40;99.90
34985;DHT22;21190;58.750;17.004;2023-04-07T04:40:27;1.50;99.90
34985;DHT22;21190;58.750;17.004;2023-04-07T04:42:54;1.50;99.90
34985;DHT22;21190;58.750;17.004;2023-04-07T04:45:21;1.60;99.90
34985;DHT22;21190;58.750;17.004;2023-04-07T04:47:48;1.60;99.90
34985;DHT22;21190;58.750;17.004;2023-04-07T04:50:15;1.70;99.90
34985;DHT22;21190;58.750;17.004;2023-04-07T04:52:42;1.60;99.90
34985;DHT22;21190;58.750;17.004;2023-04-07T04:55:10;1.50;99.90
34985;DHT22;21190;58.750;17.004;2023-04-07T04:57:40;1.60;99.90
34985;DHT22;21190;58.750;17.004;2023-04-07T05:00:07;1.60;99.90
34985;DHT22;21190;58.750;17.004;2023-04-07T05:02:35;1.70;99.90
34985;DHT22;21190;58.750;17.004;2023-04-07T05:05:02;1.60;99.90
34985;DHT22;21190;58.750;17.004;2023-04-07T05:07:29;1.70;99.90
34985;DHT22;21190;58.750;17.004;2023-04-07T05:09:56;1.70;99.90
34985;DHT22;21190;58.750;17.004;2023-04-07T05:12:23;1.60;99.90
34985;DHT22;21190;58.750;17.004;2023-04-07T05:14:50;1.70;99.90
34985;DHT22;21190;58.750;17.004;2023-04-07T05:17:17;1.70;99.90
34985;DHT22;21190;58.750;17.004;2023-04-07T05:19:44;1.70;99.90
34985;DHT22;21190;58.750;17.004;2023-04-07T05:22:11;1.70;99.90
34985;DHT22;21190;58.750;17.004;2023-04-07T05:24:38;1.70;99.90
34985;DHT22;21190;58.750;17.004;2023-04-07T05:27:05;1.80;99.90
34985;DHT22;21190;58.750;17.004;2023-04-07T05:29:32;1.70;99.90
34985;DHT22;21190;58.750;17.004;2023-04-07T05:31:59;1.70;99.90
34985;DHT22;21190;58.750;17.004;2023-04-07T05:34:27;1.70;99.90
34985;DHT22;21190;58.750;17.004;2023-04-07T05:36:54;1.80;99.90
34985;DHT22;21190;58.750;17.004;2023-04-07T05:39:21;1.80;99.90
34985;DHT22;21190;58.750;17.004;2023-04-07T05:41:48;1.80;99.90
34985;DHT22;21190;58.750;17.004;2023-04-07T05:44:15;1.80;99.90
34985;DHT22;21190;58.750;17.004;2023-04-07T05:46:42;1.80;99.90
34985;DHT22;21190;58.750;17.004;2023-04-07T05:49:09;1.70;99.90
34985;DHT22;21190;58.750;17.004;2023-04-07T05:51:45;1.70;99.90
34985;DHT22;21190;58.750;17.004;2023-04-07T05:54:14;1.70;99.90
34985;DHT22;21190;58.750;17.004;2023-04-07T05:56:42;1.90;99.90
34985;DHT22;21190;58.750;17.004;2023-04-07T05:59:09;1.80;99.90
34985;DHT22;21190;58.750;17.004;2023-04-07T06:01:36;1.80;99.90
34985;DHT22;21190;58.750;17.004;2023-04-07T06:04:03;1.90;99.90
34985;DHT22;21190;58.750;17.004;2023-04-07T06:06:30;1.90;99.90
34985;DHT22;21190;58.750;17.004;2023-04-07T06:08:57;1.90;99.90
34985;DHT22;21190;58.750;17.004;2023-04-07T06:11:25;1.90;99.90
34985;DHT22;21190;58.750;17.004;2023-04-07T06:13:52;1.90;99.90
34985;DHT22;21190;58.750;17.004;2023-04-07T06:16:19;2.00;99.90
34985;DHT22;21190;58.750;17.004;2023-04-07T06:18:46;2.00;99.90
34985;DHT22;21190;58.750;17.004;2023-04-07T06:21:13;1.90;99.90
34985;DHT22;21190;58.750;17.004;2023-04-07T06:23:41;1.90;99.90
34985;DHT22;21190;58.750;17.004;2023-04-07T06:26:11;1.90;99.90
34985;DHT22;21190;58.750;17.004;2023-04-07T06:28:39;1.90;99.90
34985;DHT22;21190;58.750;17.004;2023-04-07T06:31:07;2.00;99.90
34985;DHT22;21190;58.750;17.004;2023-04-07T06:33:34;1.90;99.90
34985;DHT22;21190;58.750;17.004;2023-04-07T06:36:01;2.00;99.90
34985;DHT22;21190;58.750;17.004;2023-04-07T06:38:29;2.10;99.90
34985;DHT22;21190;58.750;17.004;2023-04-07T06:40:56;2.10;99.90
34985;DHT22;21190;58.750;17.004;2023-04-07T06:43:23;2.10;99.90
34985;DHT22;21190;58.750;17.004;2023-04-07T06:45:50;2.10;99.90
34985;DHT22;21190;58.750;17.004;2023-04-07T06:48:17;2.10;99.90
34985;DHT22;21190;58.750;17.004;2023-04-07T06:50:50;2.10;99.90
34985;DHT22;21190;58.750;17.004;2023-04-07T06:53:17;2.10;99.90
34985;DHT22;21190;58.750;17.004;2023-04-07T06:55:44;2.10;99.90
34985;DHT22;21190;58.750;17.004;2023-04-07T06:58:11;2.20;99.90
34985;DHT22;21190;58.750;17.004;2023-04-07T07:00:38;2.20;99.90
34985;DHT22;21190;58.750;17.004;2023-04-07T07:03:05;2.20;99.90
34985;DHT22;21190;58.750;17.004;2023-04-07T07:05:32;2.20;99.90
34985;DHT22;21190;58.750;17.004;2023-04-07T07:07:59;2.20;99.90
34985;DHT22;21190;58.750;17.004;2023-04-07T07:10:26;2.20;99.90
34985;DHT22;21190;58.750;17.004;2023-04-07T07:12:53;2.20;99.90
34985;DHT22;21190;58.750;17.004;2023-04-07T07:15:20;2.30;99.90
34985;DHT22;21190;58.750;17.004;2023-04-07T07:17:48;2.30;99.90
34985;DHT22;21190;58.750;17.004;2023-04-07T07:20:15;2.30;99.90
34985;DHT22;21190;58.750;17.004;2023-04-07T07:22:42;2.30;99.90
34985;DHT22;21190;58.750;17.004;2023-04-07T07:25:09;2.40;99.90
34985;DHT22;21190;58.750;17.004;2023-04-07T07:27:36;2.40;99.90
34985;DHT22;21190;58.750;17.004;2023-04-07T07:30:03;2.40;99.90
34985;DHT22;21190;58.750;17.004;2023-04-07T07:32:31;2.50;99.90
34985;DHT22;21190;58.750;17.004;2023-04-07T07:34:58;2.50;99.90
34985;DHT22;21190;58.750;17.004;2023-04-07T07:37:25;2.60;99.90
34985;DHT22;21190;58.750;17.004;2023-04-07T07:39:52;2.60;99.90
34985;DHT22;21190;58.750;17.004;2023-04-07T07:42:19;2.60;99.90
34985;DHT22;21190;58.750;17.004;2023-04-07T07:44:46;2.60;99.90
34985;DHT22;21190;58.750;17.004;2023-04-07T07:47:13;2.60;99.90
34985;DHT22;21190;58.750;17.004;2023-04-07T07:49:40;2.70;99.90
34985;DHT22;21190;58.750;17.004;2023-04-07T07:52:07;2.70;99.90
34985;DHT22;21190;58.750;17.004;2023-04-07T07:54:36;2.80;99.90
34985;DHT22;21190;58.750;17.004;2023-04-07T07:57:02;2.70;99.90
34985;DHT22;21190;58.750;17.004;2023-04-07T07:59:30;2.80;99.90
34985;DHT22;21190;58.750;17.004;2023-04-07T08:01:57;2.80;99.90
34985;DHT22;21190;58.750;17.004;2023-04-07T08:04:24;2.80;99.90
34985;DHT22;21190;58.750;17.004;2023-04-07T08:06:52;2.90;99.90
34985;DHT22;21190;58.750;17.004;2023-04-07T08:09:19;2.90;99.90
34985;DHT22;21190;58.750;17.004;2023-04-07T08:11:46;2.90;99.90
34985;DHT22;21190;58.750;17.004;2023-04-07T08:14:17;3.00;99.90
34985;DHT22;21190;58.750;17.004;2023-04-07T08:16:44;3.00;99.90
34985;DHT22;21190;58.750;17.004;2023-04-07T08:19:12;3.00;99.90
34985;DHT22;21190;58.750;17.004;2023-04-07T08:21:39;3.10;99.90
34985;DHT22;21190;58.750;17.004;2023-04-07T08:24:06;3.10;99.90
34985;DHT22;21190;58.750;17.004;2023-04-07T08:26:33;3.10;99.90
34985;DHT22;21190;58.750;17.004;2023-04-07T08:29:00;3.10;99.90
34985;DHT22;21190;58.750;17.004;2023-04-07T08:31:27;3.10;99.90
34985;DHT22;21190;58.750;17.004;2023-04-07T08:33:54;3.10;99.90
34985;DHT22;21190;58.750;17.004;2023-04-07T08:36:24;3.20;99.90
34985;DHT22;21190;58.750;17.004;2023-04-07T08:38:52;3.20;99.90
34985;DHT22;21190;58.750;17.004;2023-04-07T08:41:38;3.20;99.90
34985;DHT22;21190;58.750;17.004;2023-04-07T08:44:09;3.20;99.90
34985;DHT22;21190;58.750;17.004;2023-04-07T08:46:40;3.30;99.90
34985;DHT22;21190;58.750;17.004;2023-04-07T08:49:08;3.30;99.90
34985;DHT22;21190;58.750;17.004;2023-04-07T08:51:37;3.40;99.90
34985;DHT22;21190;58.750;17.004;2023-04-07T08:54:10;3.40;99.90
34985;DHT22;21190;58.750;17.004;2023-04-07T08:56:39;3.40;99.90
34985;DHT22;21190;58.750;17.004;2023-04-07T08:59:09;3.40;99.90
34985;DHT22;21190;58.750;17.004;2023-04-07T09:01:36;3.40;99.90
34985;DHT22;21190;58.750;17.004;2023-04-07T09:04:04;3.50;99.90
34985;DHT22;21190;58.750;17.004;2023-04-07T09:06:32;3.50;99.90
34985;DHT22;21190;58.750;17.004;2023-04-07T09:09:00;3.50;99.90
34985;DHT22;21190;58.750;17.004;2023-04-07T09:11:28;3.50;99.90
34985;DHT22;21190;58.750;17.004;2023-04-07T09:13:56;3.60;99.90
34985;DHT22;21190;58.750;17.004;2023-04-07T09:16:24;3.60;99.90
34985;DHT22;21190;58.750;17.004;2023-04-07T09:18:54;3.70;99.90
34985;DHT22;21190;58.750;17.004;2023-04-07T09:21:21;3.70;99.90
34985;DHT22;21190;58.750;17.004;2023-04-07T09:23:48;3.70;99.90
34985;DHT22;21190;58.750;17.004;2023-04-07T09:26:24;3.70;99.90
34985;DHT22;21190;58.750;17.004;2023-04-07T09:28:57;3.80;99.90
34985;DHT22;21190;58.750;17.004;2023-04-07T09:31:45;3.90;99.90
34985;DHT22;21190;58.750;17.004;2023-04-07T09:34:30;3.80;99.90
34985;DHT22;21190;58.750;17.004;2023-04-07T09:36:58;3.80;99.90
34985;DHT22;21190;58.750;17.004;2023-04-07T09:39:26;3.80;99.90
34985;DHT22;21190;58.750;17.004;2023-04-07T09:41:53;3.90;99.90
34985;DHT22;21190;58.750;17.004;2023-04-07T09:44:21;3.80;99.90
34985;DHT22;21190;58.750;17.004;2023-04-07T09:46:52;3.90;99.90
34985;DHT22;21190;58.750;17.004;2023-04-07T09:49:19;4.00;99.90
34985;DHT22;21190;58.750;17.004;2023-04-07T09:52:00;4.00;99.90
34985;DHT22;21190;58.750;17.004;2023-04-07T09:54:32;4.00;99.90
34985;DHT22;21190;58.750;17.004;2023-04-07T09:57:01;4.00;99.90
34985;DHT22;21190;58.750;17.004;2023-04-07T09:59:30;4.10;99.90
34985;DHT22;21190;58.750;17.004;2023-04-07T10:01:58;4.10;99.90
34985;DHT22;21190;58.750;17.004;2023-04-07T10:04:25;4.00;99.90
34985;DHT22;21190;58.750;17.004;2023-04-07T10:06:53;4.00;99.90
34985;DHT22;21190;58.750;17.004;2023-04-07T10:09:23;4.00;99.90
34985;DHT22;21190;58.750;17.004;2023-04-07T10:11:52;4.00;99.90
34985;DHT22;21190;58.750;17.004;2023-04-07T10:14:21;3.90;99.90
34985;DHT22;21190;58.750;17.004;2023-04-07T10:16:49;3.90;99.90
34985;DHT22;21190;58.750;17.004;2023-04-07T10:19:18;3.90;99.90
34985;DHT22;21190;58.750;17.004;2023-04-07T10:21:47;3.90;99.90
34985;DHT22;21190;58.750;17.004;2023-04-07T10:25:07;3.80;99.90
34985;DHT22;21190;58.750;17.004;2023-04-07T10:27:18;3.80;99.90
34985;DHT22;21190;58.750;17.004;2023-04-07T10:29:49;3.80;99.90
34985;DHT22;21190;58.750;17.004;2023-04-07T10:32:17;3.80;99.90
34985;DHT22;21190;58.750;17.004;2023-04-07T10:37:17;3.90;99.90
34985;DHT22;21190;58.750;17.004;2023-04-07T10:39:47;3.90;99.90
34985;DHT22;21190;58.750;17.004;2023-04-07T10:45:04;4.00;99.90
34985;DHT22;21190;58.750;17.004;2023-04-07T10:47:31;3.90;99.90
34985;DHT22;21190;58.750;17.004;2023-04-07T10:50:18;3.90;99.90
34985;DHT22;21190;58.750;17.004;2023-04-07T10:52:47;3.90;99.90
34985;DHT22;21190;58.750;17.004;2023-04-07T10:55:29;3.90;99.90
34985;DHT22;21190;58.750;17.004;2023-04-07T11:03:32;4.00;99.90
34985;DHT22;21190;58.750;17.004;2023-04-07T11:11:03;4.10;99.90
34985;DHT22;21190;58.750;17.004;2023-04-07T11:13:45;4.10;99.90
34985;DHT22;21190;58.750;17.004;2023-04-07T11:16:18;4.00;99.90
34985;DHT22;21190;58.750;17.004;2023-04-07T11:18:46;4.10;99.90
34985;DHT22;21190;58.750;17.004;2023-04-07T11:21:18;4.10;99.90
34985;DHT22;21190;58.750;17.004;2023-04-07T11:23:46;4.10;99.90
34985;DHT22;21190;58.750;17.004;2023-04-07T11:26:14;4.20;99.90
34985;DHT22;21190;58.750;17.004;2023-04-07T11:28:52;4.20;99.90
34985;DHT22;21190;58.750;17.004;2023-04-07T11:31:23;4.10;99.90
34985;DHT22;21190;58.750;17.004;2023-04-07T11:33:54;4.10;99.90
34985;DHT22;21190;58.750;17.004;2023-04-07T11:36:31;4.10;99.90
34985;DHT22;21190;58.750;17.004;2023-04-07T11:38:59;4.20;99.90
34985;DHT22;21190;58.750;17.004;2023-04-07T11:41:28;4.10;99.90
34985;DHT22;21190;58.750;17.004;2023-04-07T11:44:06;4.20;99.90
34985;DHT22;21190;58.750;17.004;2023-04-07T11:46:34;4.10;99.90
34985;DHT22;21190;58.750;17.004;2023-04-07T11:49:12;4.20;99.90
34985;DHT22;21190;58.750;17.004;2023-04-07T11:51:42;4.20;99.90
34985;DHT22;21190;58.750;17.004;2023-04-07T11:54:09;4.20;99.90
34985;DHT22;21190;58.750;17.004;2023-04-07T11:56:45;4.20;99.90
34985;DHT22;21190;58.750;17.004;2023-04-07T11:59:39;4.30;99.90
34985;DHT22;21190;58.750;17.004;2023-04-07T12:02:06;4.30;99.90
34985;DHT22;21190;58.750;17.004;2023-04-07T12:04:34;4.30;99.90
34985;DHT22;21190;58.750;17.004;2023-04-07T12:07:07;4.40;99.90
34985;DHT22;21190;58.750;17.004;2023-04-07T12:09:34;4.30;99.90
34985;DHT22;21190;58.750;17.004;2023-04-07T12:12:04;4.30;99.90
34985;DHT22;21190;58.750;17.004;2023-04-07T12:14:34;4.30;99.90
34985;DHT22;21190;58.750;17.004;2023-04-07T12:17:01;4.30;99.90
34985;DHT22;21190;58.750;17.004;2023-04-07T12:19:30;4.20;99.90
34985;DHT22;21190;58.750;17.004;2023-04-07T12:22:02;4.20;99.90
34985;DHT22;21190;58.750;17.004;2023-04-07T12:24:29;4.30;99.90
34985;DHT22;21190;58.750;17.004;2023-04-07T12:26:58;4.30;99.90
34985;DHT22;21190;58.750;17.004;2023-04-07T12:29:25;4.30;99.90
34985;DHT22;21190;58.750;17.004;2023-04-07T12:31:52;4.30;99.90
34985;DHT22;21190;58.750;17.004;2023-04-07T12:34:19;4.30;99.90
34985;DHT22;21190;58.750;17.004;2023-04-07T12:36:46;4.40;99.90
34985;DHT22;21190;58.750;17.004;2023-04-07T12:39:14;4.40;99.90
34985;DHT22;21190;58.750;17.004;2023-04-07T12:41:41;4.30;99.90
34985;DHT22;21190;58.750;17.004;2023-04-07T12:44:10;4.30;99.90
34985;DHT22;21190;58.750;17.004;2023-04-07T12:46:37;4.40;99.90
34985;DHT22;21190;58.750;17.004;2023-04-07T12:49:04;4.40;99.90
34985;DHT22;21190;58.750;17.004;2023-04-07T12:51:31;4.40;99.90
34985;DHT22;21190;58.750;17.004;2023-04-07T12:54:01;4.30;99.90
34985;DHT22;21190;58.750;17.004;2023-04-07T12:56:29;4.30;99.90
34985;DHT22;21190;58.750;17.004;2023-04-07T12:58:56;4.30;99.90
34985;DHT22;21190;58.750;17.004;2023-04-07T13:01:23;4.30;99.90
34985;DHT22;21190;58.750;17.004;2023-04-07T13:03:50;4.40;99.90
34985;DHT22;21190;58.750;17.004;2023-04-07T13:06:18;4.40;99.90
34985;DHT22;21190;58.750;17.004;2023-04-07T13:08:45;4.40;99.90
34985;DHT22;21190;58.750;17.004;2023-04-07T13:11:11;4.50;99.90
34985;DHT22;21190;58.750;17.004;2023-04-07T13:13:38;4.50;99.90
34985;DHT22;21190;58.750;17.004;2023-04-07T13:16:06;4.40;99.90
34985;DHT22;21190;58.750;17.004;2023-04-07T13:18:33;4.40;99.90
34985;DHT22;21190;58.750;17.004;2023-04-07T13:21:00;4.40;99.90
34985;DHT22;21190;58.750;17.004;2023-04-07T13:23:47;4.50;99.90
34985;DHT22;21190;58.750;17.004;2023-04-07T13:26:16;4.50;99.90
34985;DHT22;21190;58.750;17.004;2023-04-07T13:28:43;4.50;99.90
34985;DHT22;21190;58.750;17.004;2023-04-07T13:31:11;4.50;99.90
34985;DHT22;21190;58.750;17.004;2023-04-07T13:33:42;4.40;99.90
34985;DHT22;21190;58.750;17.004;2023-04-07T13:36:09;4.40;99.90
34985;DHT22;21190;58.750;17.004;2023-04-07T13:38:36;4.40;99.90
34985;DHT22;21190;58.750;17.004;2023-04-07T13:41:03;4.40;99.90
34985;DHT22;21190;58.750;17.004;2023-04-07T13:43:30;4.50;99.90
34985;DHT22;21190;58.750;17.004;2023-04-07T13:45:56;4.50;99.90
34985;DHT22;21190;58.750;17.004;2023-04-07T13:48:23;4.50;99.90
34985;DHT22;21190;58.750;17.004;2023-04-07T13:50:50;4.60;99.90
34985;DHT22;21190;58.750;17.004;2023-04-07T13:53:17;4.50;99.90
34985;DHT22;21190;58.750;17.004;2023-04-07T13:55:45;4.60;99.90
34985;DHT22;21190;58.750;17.004;2023-04-07T13:58:12;4.70;99.90
34985;DHT22;21190;58.750;17.004;2023-04-07T14:00:38;4.60;99.90
34985;DHT22;21190;58.750;17.004;2023-04-07T14:03:06;4.50;99.90
34985;DHT22;21190;58.750;17.004;2023-04-07T14:05:34;4.50;99.90
34985;DHT22;21190;58.750;17.004;2023-04-07T14:08:01;4.50;99.90
34985;DHT22;21190;58.750;17.004;2023-04-07T14:10:28;4.50;99.90
34985;DHT22;21190;58.750;17.004;2023-04-07T14:12:55;4.50;99.90
34985;DHT22;21190;58.750;17.004;2023-04-07T14:15:22;4.60;99.90
34985;DHT22;21190;58.750;17.004;2023-04-07T14:17:49;4.60;99.90
34985;DHT22;21190;58.750;17.004;2023-04-07T14:20:16;4.60;99.90
34985;DHT22;21190;58.750;17.004;2023-04-07T14:22:43;4.60;99.90
34985;DHT22;21190;58.750;17.004;2023-04-07T14:25:10;4.60;99.90
34985;DHT22;21190;58.750;17.004;2023-04-07T14:27:37;4.60;99.90
34985;DHT22;21190;58.750;17.004;2023-04-07T14:30:05;4.60;99.90
34985;DHT22;21190;58.750;17.004;2023-04-07T14:32:32;4.50;99.90
34985;DHT22;21190;58.750;17.004;2023-04-07T14:35:00;4.50;99.90
34985;DHT22;21190;58.750;17.004;2023-04-07T14:37:28;4.50;99.90
34985;DHT22;21190;58.750;17.004;2023-04-07T14:39:55;4.50;99.90
34985;DHT22;21190;58.750;17.004;2023-04-07T14:42:25;4.50;99.90
34985;DHT22;21190;58.750;17.004;2023-04-07T14:44:52;4.50;99.90
34985;DHT22;21190;58.750;17.004;2023-04-07T14:47:19;4.60;99.90
34985;DHT22;21190;58.750;17.004;2023-04-07T14:49:46;4.60;99.90
34985;DHT22;21190;58.750;17.004;2023-04-07T14:52:13;4.60;99.90
34985;DHT22;21190;58.750;17.004;2023-04-07T14:54:41;4.50;99.90
34985;DHT22;21190;58.750;17.004;2023-04-07T14:57:08;4.60;99.90
34985;DHT22;21190;58.750;17.004;2023-04-07T14:59:35;4.60;99.90
34985;DHT22;21190;58.750;17.004;2023-04-07T15:02:02;4.50;99.90
34985;DHT22;21190;58.750;17.004;2023-04-07T15:04:29;4.70;99.90
34985;DHT22;21190;58.750;17.004;2023-04-07T15:06:56;4.70;99.90
34985;DHT22;21190;58.750;17.004;2023-04-07T15:09:23;4.80;99.90
34985;DHT22;21190;58.750;17.004;2023-04-07T15:11:50;4.70;99.90
34985;DHT22;21190;58.750;17.004;2023-04-07T15:14:16;4.70;99.90
34985;DHT22;21190;58.750;17.004;2023-04-07T15:16:43;4.70;99.90
34985;DHT22;21190;58.750;17.004;2023-04-07T15:19:12;4.80;99.90
34985;DHT22;21190;58.750;17.004;2023-04-07T15:21:39;4.70;99.90
34985;DHT22;21190;58.750;17.004;2023-04-07T15:24:06;4.60;99.90
34985;DHT22;21190;58.750;17.004;2023-04-07T15:26:33;4.60;99.90
34985;DHT22;21190;58.750;17.004;2023-04-07T15:29:00;4.60;99.90
34985;DHT22;21190;58.750;17.004;2023-04-07T15:31:27;4.60;99.90
34985;DHT22;21190;58.750;17.004;2023-04-07T15:33:55;4.60;99.90
34985;DHT22;21190;58.750;17.004;2023-04-07T15:36:22;4.60;99.90
34985;DHT22;21190;58.750;17.004;2023-04-07T15:38:49;4.60;99.90
34985;DHT22;21190;58.750;17.004;2023-04-07T15:41:16;4.60;99.90
34985;DHT22;21190;58.750;17.004;2023-04-07T15:43:43;4.60;99.90
34985;DHT22;21190;58.750;17.004;2023-04-07T15:46:10;4.60;99.90
34985;DHT22;21190;58.750;17.004;2023-04-07T15:48:37;4.70;99.90
34985;DHT22;21190;58.750;17.004;2023-04-07T15:51:04;4.70;99.90
34985;DHT22;21190;58.750;17.004;2023-04-07T15:53:31;4.70;99.90
34985;DHT22;21190;58.750;17.004;2023-04-07T15:55:58;4.70;99.90
34985;DHT22;21190;58.750;17.004;2023-04-07T15:58:25;4.70;99.90
34985;DHT22;21190;58.750;17.004;2023-04-07T16:00:52;4.70;99.90